createdAt,value
2019-05-18T00:00:33.015Z,13.17
2019-05-18T00:01:33.009Z,13.20
2019-05-18T00:02:32.985Z,13.27
2019-05-18T00:03:32.976Z,13.24
2019-05-18T00:04:32.976Z,13.21
2019-05-18T00:05:32.929Z,13.27
2019-05-18T00:06:32.910Z,13.19
2019-05-18T00:07:32.894Z,13.21
2019-05-18T00:08:32.884Z,13.08
2019-05-18T00:09:32.862Z,13.17
2019-05-18T00:10:32.853Z,13.14
2019-05-18T00:11:32.828Z,13.02
2019-05-18T00:12:32.808Z,13.05
2019-05-18T00:13:32.793Z,13.08
2019-05-18T00:14:32.776Z,12.99
2019-05-18T00:15:32.762Z,12.96
2019-05-18T00:16:32.744Z,12.96
2019-05-18T00:17:32.727Z,13.01
2019-05-18T00:18:32.703Z,12.96
2019-05-18T00:19:32.687Z,13.06
2019-05-18T00:20:32.668Z,12.99
2019-05-18T00:21:32.658Z,12.98
2019-05-18T00:22:32.640Z,12.91
2019-05-18T00:23:32.617Z,12.99
2019-05-18T00:24:32.601Z,12.98
2019-05-18T00:25:32.585Z,12.95
2019-05-18T00:26:32.568Z,12.95
2019-05-18T00:27:32.548Z,12.98
2019-05-18T00:28:32.544Z,12.95
2019-05-18T00:29:32.515Z,12.87
2019-05-18T00:30:32.498Z,12.91
2019-05-18T00:31:32.487Z,12.91
2019-05-18T00:32:32.459Z,12.95
2019-05-18T00:33:32.459Z,12.88
2019-05-18T00:34:32.429Z,12.88
2019-05-18T00:35:32.418Z,12.83
2019-05-18T00:36:32.390Z,12.86
2019-05-18T00:37:32.375Z,12.86
2019-05-18T00:38:32.357Z,12.86
2019-05-18T00:39:32.396Z,12.90
2019-05-18T00:40:32.322Z,12.86
2019-05-18T00:41:32.305Z,12.84
2019-05-18T00:42:32.286Z,12.80
2019-05-18T00:43:32.270Z,12.73
2019-05-18T00:44:32.252Z,12.73
2019-05-18T00:45:32.234Z,12.73
2019-05-18T00:46:32.218Z,12.76
2019-05-18T00:47:40.985Z,12.77
2019-05-18T00:48:32.181Z,12.76
2019-05-18T00:49:32.169Z,12.79
2019-05-18T00:50:32.145Z,12.69
2019-05-18T00:51:32.128Z,12.65
2019-05-18T00:52:32.114Z,12.63
2019-05-18T00:53:32.094Z,12.63
2019-05-18T00:54:32.076Z,12.62
2019-05-18T00:55:32.063Z,12.68
2019-05-18T00:56:32.051Z,12.63
2019-05-18T00:57:32.024Z,12.62
2019-05-18T00:58:32.008Z,12.72
2019-05-18T00:59:31.991Z,12.69
2019-05-18T01:00:31.980Z,12.66
2019-05-18T01:01:31.960Z,12.62
2019-05-18T01:02:31.936Z,12.59
2019-05-18T01:03:31.920Z,12.61
2019-05-18T01:04:31.900Z,12.65
2019-05-18T01:05:31.897Z,12.50
2019-05-18T01:06:31.871Z,12.50
2019-05-18T01:07:31.853Z,12.48
2019-05-18T01:08:31.833Z,12.58
2019-05-18T01:09:31.819Z,12.48
2019-05-18T01:10:31.797Z,12.43
2019-05-18T01:11:31.783Z,12.44
2019-05-18T01:12:31.766Z,12.50
2019-05-18T01:13:31.744Z,12.48
2019-05-18T01:14:31.726Z,12.41
2019-05-18T01:15:31.715Z,12.41
2019-05-18T01:16:31.694Z,12.40
2019-05-18T01:17:31.670Z,12.43
2019-05-18T01:18:31.662Z,12.36
2019-05-18T01:19:31.637Z,12.36
2019-05-18T01:20:31.618Z,12.33
2019-05-18T01:21:31.640Z,12.30
2019-05-18T01:22:31.580Z,12.35
2019-05-18T01:23:31.564Z,12.35
2019-05-18T01:24:31.549Z,12.32
2019-05-18T01:25:31.535Z,12.28
2019-05-18T01:26:31.518Z,12.30
2019-05-18T01:27:31.494Z,12.33
2019-05-18T01:28:31.479Z,12.30
2019-05-18T01:29:31.462Z,12.28
2019-05-18T01:30:31.442Z,12.25
2019-05-18T01:31:31.424Z,12.28
2019-05-18T01:32:31.409Z,12.35
2019-05-18T01:33:31.390Z,12.35
2019-05-18T01:34:31.372Z,12.36
2019-05-18T01:35:31.354Z,12.30
2019-05-18T01:36:31.336Z,12.35
2019-05-18T01:37:31.326Z,12.30
2019-05-18T01:38:31.303Z,12.25
2019-05-18T01:39:31.280Z,12.28
2019-05-18T01:40:31.265Z,12.26
2019-05-18T01:41:31.248Z,12.25
2019-05-18T01:42:31.230Z,12.23
2019-05-18T01:43:31.211Z,12.25
2019-05-18T01:44:31.193Z,12.18
2019-05-18T01:45:31.173Z,12.26
2019-05-18T01:46:31.159Z,12.22
2019-05-18T01:47:31.138Z,12.15
2019-05-18T01:48:31.122Z,12.17
2019-05-18T01:49:31.152Z,12.17
2019-05-18T01:50:31.087Z,12.15
2019-05-18T01:51:31.067Z,12.17
2019-05-18T01:52:31.050Z,12.15
2019-05-18T01:53:31.042Z,12.13
2019-05-18T01:54:31.013Z,12.18
2019-05-18T01:55:30.998Z,12.08
2019-05-18T01:56:30.976Z,12.17
2019-05-18T01:57:30.959Z,12.11
2019-05-18T01:58:30.940Z,12.10
2019-05-18T01:59:30.924Z,12.13
2019-05-18T02:00:30.908Z,12.05
2019-05-18T02:01:30.894Z,12.10
2019-05-18T02:02:30.871Z,12.03
2019-05-18T02:03:30.855Z,12.05
2019-05-18T02:04:30.835Z,12.08
2019-05-18T02:05:30.818Z,11.99
2019-05-18T02:06:30.801Z,12.10
2019-05-18T02:07:30.782Z,11.99
2019-05-18T02:08:30.769Z,11.99
2019-05-18T02:09:30.746Z,11.97
2019-05-18T02:10:30.728Z,11.91
2019-05-18T02:11:30.714Z,11.96
2019-05-18T02:12:30.689Z,11.85
2019-05-18T02:13:30.677Z,11.96
2019-05-18T02:14:30.656Z,11.89
2019-05-18T02:15:30.637Z,11.85
2019-05-18T02:16:30.628Z,11.77
2019-05-18T02:17:30.606Z,11.88
2019-05-18T02:18:30.588Z,11.73
2019-05-18T02:19:30.566Z,11.74
2019-05-18T02:20:30.550Z,11.89
2019-05-18T02:21:30.529Z,11.71
2019-05-18T02:22:30.514Z,11.76
2019-05-18T02:23:30.493Z,11.77
2019-05-18T02:24:30.474Z,11.79
2019-05-18T02:25:30.458Z,11.77
2019-05-18T02:26:30.436Z,11.77
2019-05-18T02:27:30.434Z,11.73
2019-05-18T02:28:30.403Z,11.70
2019-05-18T02:29:30.387Z,11.74
2019-05-18T02:30:30.365Z,11.76
2019-05-18T02:31:30.352Z,11.73
2019-05-18T02:32:30.329Z,11.76
2019-05-18T02:33:30.312Z,11.74
2019-05-18T02:34:30.304Z,11.79
2019-05-18T02:35:30.277Z,11.74
2019-05-18T02:36:30.260Z,11.74
2019-05-18T02:37:30.244Z,11.66
2019-05-18T02:38:30.222Z,11.67
2019-05-18T02:39:30.202Z,11.69
2019-05-18T02:40:30.189Z,11.67
2019-05-18T02:41:30.169Z,11.62
2019-05-18T02:42:30.918Z,11.70
2019-05-18T02:43:30.218Z,11.66
2019-05-18T02:44:30.113Z,11.64
2019-05-18T02:45:30.094Z,11.62
2019-05-18T02:46:30.081Z,11.62
2019-05-18T02:47:30.063Z,11.56
2019-05-18T02:48:47.142Z,11.61
2019-05-18T02:49:30.025Z,11.61
2019-05-18T02:50:30.004Z,11.56
2019-05-18T02:51:29.986Z,11.58
2019-05-18T02:52:29.970Z,11.56
2019-05-18T02:53:29.950Z,11.56
2019-05-18T02:54:29.931Z,11.58
2019-05-18T02:55:29.912Z,11.59
2019-05-18T02:56:29.892Z,11.59
2019-05-18T02:57:29.876Z,11.54
2019-05-18T02:58:29.867Z,11.56
2019-05-18T02:59:29.838Z,11.56
2019-05-18T03:00:29.820Z,11.55
2019-05-18T03:01:29.811Z,11.61
2019-05-18T03:02:29.785Z,11.51
2019-05-18T03:03:29.766Z,11.61
2019-05-18T03:04:29.748Z,11.54
2019-05-18T03:05:29.742Z,11.52
2019-05-18T03:06:29.711Z,11.48
2019-05-18T03:07:29.693Z,11.51
2019-05-18T03:08:29.675Z,11.45
2019-05-18T03:09:29.667Z,11.46
2019-05-18T03:10:29.640Z,11.41
2019-05-18T03:11:29.621Z,11.43
2019-05-18T03:12:29.604Z,11.51
2019-05-18T03:13:29.593Z,11.45
2019-05-18T03:14:29.572Z,11.51
2019-05-18T03:15:29.549Z,11.46
2019-05-18T03:16:29.536Z,11.43
2019-05-18T03:17:29.521Z,11.51
2019-05-18T03:18:29.499Z,11.54
2019-05-18T03:19:29.477Z,11.55
2019-05-18T03:20:29.461Z,11.43
2019-05-18T03:21:29.436Z,11.51
2019-05-18T03:22:29.424Z,11.46
2019-05-18T03:23:29.422Z,11.54
2019-05-18T03:24:29.386Z,11.52
2019-05-18T03:25:29.375Z,11.49
2019-05-18T03:26:29.349Z,11.41
2019-05-18T03:27:29.328Z,11.45
2019-05-18T03:28:29.319Z,11.41
2019-05-18T03:29:29.290Z,11.40
2019-05-18T03:30:29.289Z,11.45
2019-05-18T03:31:29.268Z,11.43
2019-05-18T03:32:29.251Z,11.41
2019-05-18T03:33:30.393Z,11.41
2019-05-18T03:34:29.198Z,11.31
2019-05-18T03:35:29.194Z,11.41
2019-05-18T03:36:29.162Z,11.40
2019-05-18T03:37:29.146Z,11.34
2019-05-18T03:38:29.127Z,11.36
2019-05-18T03:39:29.107Z,11.28
2019-05-18T03:40:29.089Z,11.38
2019-05-18T03:41:29.085Z,11.31
2019-05-18T03:42:29.051Z,11.36
2019-05-18T03:43:29.033Z,11.40
2019-05-18T03:44:29.016Z,11.45
2019-05-18T03:45:28.999Z,11.27
2019-05-18T03:46:28.982Z,11.38
2019-05-18T03:47:28.966Z,11.41
2019-05-18T03:48:28.939Z,11.40
2019-05-18T03:49:28.928Z,11.34
2019-05-18T03:50:28.905Z,11.33
2019-05-18T03:51:28.894Z,11.31
2019-05-18T03:52:28.867Z,11.43
2019-05-18T03:53:28.849Z,11.41
2019-05-18T03:54:28.861Z,11.45
2019-05-18T03:55:28.821Z,11.43
2019-05-18T03:56:28.797Z,11.40
2019-05-18T03:57:28.774Z,11.38
2019-05-18T03:58:28.760Z,11.38
2019-05-18T03:59:28.809Z,11.36
2019-05-18T04:00:28.728Z,11.40
2019-05-18T04:01:28.700Z,11.37
2019-05-18T04:02:28.687Z,11.37
2019-05-18T04:03:28.665Z,11.38
2019-05-18T04:04:28.649Z,11.40
2019-05-18T04:05:28.626Z,11.37
2019-05-18T04:06:28.689Z,11.37
2019-05-18T04:07:28.590Z,11.36
2019-05-18T04:08:28.572Z,11.41
2019-05-18T04:09:28.553Z,11.43
2019-05-18T04:10:28.542Z,11.34
2019-05-18T04:11:28.525Z,11.41
2019-05-18T04:12:28.499Z,11.38
2019-05-18T04:13:28.484Z,11.40
2019-05-18T04:14:28.463Z,11.41
2019-05-18T04:15:28.447Z,11.36
2019-05-18T04:16:28.425Z,11.37
2019-05-18T04:17:28.408Z,11.40
2019-05-18T04:18:28.399Z,11.37
2019-05-18T04:19:44.875Z,11.54
2019-05-18T04:20:28.356Z,11.45
2019-05-18T04:21:28.338Z,11.45
2019-05-18T04:22:28.315Z,11.40
2019-05-18T04:23:28.298Z,11.46
2019-05-18T04:24:28.293Z,11.46
2019-05-18T04:25:28.269Z,11.49
2019-05-18T04:26:28.245Z,11.51
2019-05-18T04:27:28.224Z,11.43
2019-05-18T04:28:28.207Z,11.52
2019-05-18T04:29:28.194Z,11.55
2019-05-18T04:30:28.169Z,11.52
2019-05-18T04:31:31.977Z,11.55
2019-05-18T04:32:28.141Z,11.51
2019-05-18T04:33:28.123Z,11.56
2019-05-18T04:34:28.095Z,11.56
2019-05-18T04:35:28.079Z,11.56
2019-05-18T04:36:28.170Z,11.52
2019-05-18T04:37:28.040Z,11.52
2019-05-18T04:38:28.029Z,11.55
2019-05-18T04:39:28.011Z,11.58
2019-05-18T04:40:27.988Z,11.64
2019-05-18T04:41:27.970Z,11.69
2019-05-18T04:42:27.954Z,11.69
2019-05-18T04:43:27.936Z,11.71
2019-05-18T04:44:27.925Z,11.71
2019-05-18T04:45:27.975Z,11.74
2019-05-18T04:46:27.879Z,11.67
2019-05-18T04:47:27.865Z,11.85
2019-05-18T04:48:27.842Z,11.88
2019-05-18T04:49:27.822Z,11.87
2019-05-18T04:50:27.811Z,11.89
2019-05-18T04:51:27.792Z,11.89
2019-05-18T04:52:27.785Z,11.84
2019-05-18T04:53:27.754Z,11.97
2019-05-18T04:54:27.731Z,11.91
2019-05-18T04:55:27.715Z,11.91
2019-05-18T04:56:27.697Z,12.00
2019-05-18T04:57:27.678Z,12.05
2019-05-18T04:58:27.662Z,12.00
2019-05-18T04:59:27.646Z,12.14
2019-05-18T05:00:27.638Z,12.13
2019-05-18T05:01:27.617Z,12.13
2019-05-18T05:02:27.594Z,12.15
2019-05-18T05:03:27.573Z,12.17
2019-05-18T05:04:27.557Z,12.17
2019-05-18T05:05:27.539Z,12.14
2019-05-18T05:06:27.521Z,12.14
2019-05-18T05:07:27.515Z,12.26
2019-05-18T05:08:27.485Z,12.30
2019-05-18T05:09:27.465Z,12.28
2019-05-18T05:10:27.454Z,12.36
2019-05-18T05:11:27.431Z,12.43
2019-05-18T05:12:27.412Z,12.44
2019-05-18T05:13:27.403Z,12.41
2019-05-18T05:14:27.383Z,12.48
2019-05-18T05:15:27.359Z,12.48
2019-05-18T05:16:27.340Z,12.48
2019-05-18T05:17:27.333Z,12.51
2019-05-18T05:18:27.308Z,12.44
2019-05-18T05:19:27.291Z,12.59
2019-05-18T05:20:27.279Z,12.58
2019-05-18T05:21:27.269Z,12.54
2019-05-18T05:22:27.241Z,12.50
2019-05-18T05:23:27.221Z,12.58
2019-05-18T05:24:27.206Z,12.53
2019-05-18T05:25:27.186Z,12.47
2019-05-18T05:26:27.169Z,12.48
2019-05-18T05:27:27.150Z,12.46
2019-05-18T05:28:27.135Z,12.41
2019-05-18T05:29:27.129Z,12.35
2019-05-18T05:30:27.105Z,12.32
2019-05-18T05:31:27.088Z,12.35
2019-05-18T05:32:27.062Z,12.29
2019-05-18T05:33:27.048Z,12.33
2019-05-18T05:34:27.037Z,12.32
2019-05-18T05:35:27.011Z,12.46
2019-05-18T05:36:26.996Z,12.41
2019-05-18T05:37:26.976Z,12.46
2019-05-18T05:38:26.957Z,12.61
2019-05-18T05:39:26.947Z,12.58
2019-05-18T05:40:26.921Z,12.58
2019-05-18T05:41:26.905Z,12.55
2019-05-18T05:42:26.890Z,12.53
2019-05-18T05:43:26.869Z,12.55
2019-05-18T05:44:26.862Z,12.61
2019-05-18T05:45:26.834Z,12.63
2019-05-18T05:46:26.817Z,12.68
2019-05-18T05:47:26.801Z,12.72
2019-05-18T05:48:26.782Z,12.84
2019-05-18T05:49:26.765Z,12.86
2019-05-18T05:50:35.520Z,12.98
2019-05-18T05:51:26.739Z,12.93
2019-05-18T05:52:26.712Z,13.05
2019-05-18T05:53:26.696Z,12.96
2019-05-18T05:54:26.678Z,12.96
2019-05-18T05:55:26.662Z,13.01
2019-05-18T05:56:26.643Z,13.17
2019-05-18T05:57:26.626Z,13.01
2019-05-18T05:58:26.610Z,13.17
2019-05-18T05:59:26.595Z,13.19
2019-05-18T06:00:26.576Z,13.23
2019-05-18T06:01:26.558Z,13.29
2019-05-18T06:02:26.542Z,13.32
2019-05-18T06:03:26.523Z,13.42
2019-05-18T06:04:26.510Z,13.46
2019-05-18T06:05:26.491Z,13.54
2019-05-18T06:06:26.472Z,13.54
2019-05-18T06:07:26.456Z,13.54
2019-05-18T06:08:26.438Z,13.60
2019-05-18T06:09:26.422Z,13.58
2019-05-18T06:10:26.404Z,13.68
2019-05-18T06:11:26.385Z,13.72
2019-05-18T06:12:26.380Z,13.71
2019-05-18T06:13:26.352Z,13.76
2019-05-18T06:14:26.338Z,13.63
2019-05-18T06:15:26.319Z,13.68
2019-05-18T06:16:26.302Z,13.85
2019-05-18T06:17:26.286Z,13.85
2019-05-18T06:18:26.268Z,14.04
2019-05-18T06:19:26.263Z,14.04
2019-05-18T06:20:26.237Z,14.12
2019-05-18T06:21:26.221Z,14.11
2019-05-18T06:22:26.207Z,14.09
2019-05-18T06:23:26.188Z,14.08
2019-05-18T06:24:26.172Z,14.12
2019-05-18T06:25:26.152Z,14.21
2019-05-18T06:26:26.154Z,14.21
2019-05-18T06:27:26.119Z,14.31
2019-05-18T06:28:26.113Z,14.40
2019-05-18T06:29:26.087Z,14.46
2019-05-18T06:30:26.082Z,14.51
2019-05-18T06:31:26.063Z,14.53
2019-05-18T06:32:26.038Z,14.58
2019-05-18T06:33:26.028Z,14.82
2019-05-18T06:34:26.007Z,14.78
2019-05-18T06:35:25.998Z,14.79
2019-05-18T06:36:25.975Z,14.90
2019-05-18T06:37:25.959Z,14.99
2019-05-18T06:38:25.947Z,15.03
2019-05-18T06:39:25.936Z,14.85
2019-05-18T06:40:25.912Z,14.83
2019-05-18T06:41:25.899Z,14.87
2019-05-18T06:42:25.880Z,14.92
2019-05-18T06:43:25.877Z,14.99
2019-05-18T06:44:25.848Z,15.10
2019-05-18T06:45:25.841Z,15.15
2019-05-18T06:46:25.820Z,15.26
2019-05-18T06:47:25.807Z,15.45
2019-05-18T06:48:25.804Z,15.41
2019-05-18T06:49:25.778Z,15.44
2019-05-18T06:50:25.766Z,15.52
2019-05-18T06:51:25.740Z,15.63
2019-05-18T06:52:25.737Z,15.80
2019-05-18T06:53:25.716Z,15.81
2019-05-18T06:54:25.708Z,15.90
2019-05-18T06:55:25.680Z,15.91
2019-05-18T06:56:25.670Z,15.78
2019-05-18T06:57:25.653Z,15.83
2019-05-18T06:58:25.634Z,15.88
2019-05-18T06:59:25.628Z,15.96
2019-05-18T07:00:25.611Z,16.14
2019-05-18T07:01:25.592Z,16.18
2019-05-18T07:02:25.575Z,16.25
2019-05-18T07:03:25.582Z,16.24
2019-05-18T07:04:25.543Z,16.08
2019-05-18T07:05:25.528Z,15.98
2019-05-18T07:06:25.525Z,15.98
2019-05-18T07:07:25.505Z,15.99
2019-05-18T07:08:25.486Z,16.08
2019-05-18T07:09:25.568Z,16.09
2019-05-18T07:10:25.454Z,16.34
2019-05-18T07:11:25.442Z,16.46
2019-05-18T07:12:25.428Z,16.51
2019-05-18T07:13:25.454Z,16.69
2019-05-18T07:14:26.227Z,16.84
2019-05-18T07:15:25.388Z,16.82
2019-05-18T07:16:25.369Z,16.84
2019-05-18T07:17:25.355Z,16.77
2019-05-18T07:18:30.739Z,16.84
2019-05-18T07:19:25.418Z,16.90
2019-05-18T07:20:25.338Z,16.97
2019-05-18T07:21:25.298Z,17.06
2019-05-18T07:22:25.292Z,17.19
2019-05-18T07:23:25.270Z,17.28
2019-05-18T07:24:25.263Z,17.41
2019-05-18T07:25:25.244Z,17.50
2019-05-18T07:26:25.228Z,17.52
2019-05-18T07:27:25.216Z,17.52
2019-05-18T07:28:25.199Z,17.59
2019-05-18T07:29:25.187Z,17.69
2019-05-18T07:30:25.173Z,17.76
2019-05-18T07:31:31.140Z,17.86
2019-05-18T07:32:25.149Z,17.83
2019-05-18T07:33:58.525Z,18.02
2019-05-18T07:34:26.672Z,18.01
2019-05-18T07:35:25.106Z,18.02
2019-05-18T07:36:25.099Z,17.97
2019-05-18T07:37:25.138Z,18.12
2019-05-18T07:38:26.151Z,18.17
2019-05-18T07:39:25.055Z,18.30
2019-05-18T07:40:25.045Z,18.38
2019-05-18T07:41:25.032Z,18.46
2019-05-18T07:42:25.012Z,18.51
2019-05-18T07:43:24.998Z,18.67
2019-05-18T07:44:24.987Z,18.75
2019-05-18T07:45:24.977Z,18.86
2019-05-18T07:46:24.961Z,19.05
2019-05-18T07:47:24.945Z,19.20
2019-05-18T07:48:24.932Z,19.34
2019-05-18T07:49:24.919Z,19.49
2019-05-18T07:50:24.910Z,19.49
2019-05-18T07:51:36.244Z,19.56
2019-05-18T07:52:24.884Z,19.67
2019-05-18T07:53:24.872Z,19.57
2019-05-18T07:54:24.858Z,19.63
2019-05-18T07:55:24.855Z,19.81
2019-05-18T07:56:24.837Z,19.84
2019-05-18T07:57:24.832Z,19.89
2019-05-18T07:58:24.814Z,19.77
2019-05-18T07:59:24.799Z,19.75
2019-05-18T08:00:24.786Z,19.45
2019-05-18T08:01:24.774Z,19.47
2019-05-18T08:02:24.770Z,19.49
2019-05-18T08:03:24.754Z,19.42
2019-05-18T08:04:24.747Z,19.87
2019-05-18T08:05:24.731Z,20.15
2019-05-18T08:06:24.724Z,20.60
2019-05-18T08:07:24.719Z,20.71
2019-05-18T08:08:24.696Z,21.07
2019-05-18T08:09:24.683Z,21.11
2019-05-18T08:10:24.687Z,21.11
2019-05-18T08:11:24.661Z,20.65
2019-05-18T08:12:24.651Z,20.50
2019-05-18T08:13:24.639Z,20.30
2019-05-18T08:14:24.629Z,20.49
2019-05-18T08:15:24.625Z,20.73
2019-05-18T08:16:24.610Z,20.93
2019-05-18T08:17:24.603Z,20.95
2019-05-18T08:18:24.603Z,20.93
2019-05-18T08:19:24.587Z,21.14
2019-05-18T08:20:24.580Z,21.35
2019-05-18T08:21:24.572Z,21.45
2019-05-18T08:22:24.562Z,21.47
2019-05-18T08:23:24.556Z,21.51
2019-05-18T08:24:24.552Z,21.82
2019-05-18T08:25:24.541Z,22.16
2019-05-18T08:26:24.546Z,22.22
2019-05-18T08:27:24.525Z,22.61
2019-05-18T08:28:24.517Z,22.49
2019-05-18T08:29:24.513Z,22.61
2019-05-18T08:30:24.507Z,22.55
2019-05-18T08:31:24.582Z,22.64
2019-05-18T08:32:24.494Z,22.66
2019-05-18T08:33:24.505Z,22.95
2019-05-18T08:34:24.481Z,23.15
2019-05-18T08:35:27.082Z,23.41
2019-05-18T08:36:24.465Z,23.82
2019-05-18T08:37:24.461Z,24.06
2019-05-18T08:38:24.455Z,24.53
2019-05-18T08:39:24.446Z,24.74
2019-05-18T08:40:24.439Z,24.63
2019-05-18T08:41:24.435Z,25.00
2019-05-18T08:42:24.430Z,25.53
2019-05-18T08:43:24.432Z,25.77
2019-05-18T08:44:24.434Z,25.95
2019-05-18T08:45:24.422Z,26.23
2019-05-18T08:46:24.415Z,26.38
2019-05-18T08:47:24.411Z,26.78
2019-05-18T08:48:24.409Z,26.78
2019-05-18T08:49:24.404Z,27.03
2019-05-18T08:50:24.402Z,26.68
2019-05-18T08:51:24.401Z,26.20
2019-05-18T08:52:24.393Z,26.26
2019-05-18T08:53:24.396Z,26.43
2019-05-18T08:54:24.388Z,26.23
2019-05-18T08:55:24.394Z,26.36
2019-05-18T08:56:24.386Z,26.63
2019-05-18T08:57:24.385Z,25.74
2019-05-18T08:58:24.381Z,25.27
2019-05-18T08:59:24.378Z,25.70
2019-05-18T09:00:24.373Z,26.10
2019-05-18T09:01:24.369Z,26.58
2019-05-18T09:02:24.370Z,26.93
2019-05-18T09:03:24.369Z,25.66
2019-05-18T09:04:24.360Z,25.67
2019-05-18T09:05:24.359Z,25.66
2019-05-18T09:06:24.357Z,26.01
2019-05-18T09:07:24.359Z,26.46
2019-05-18T09:08:24.350Z,26.65
2019-05-18T09:09:24.344Z,26.89
2019-05-18T09:10:24.345Z,26.98
2019-05-18T09:11:24.346Z,26.45
2019-05-18T09:12:24.337Z,26.38
2019-05-18T09:13:24.334Z,26.80
2019-05-18T09:14:24.339Z,27.40
2019-05-18T09:15:24.327Z,27.68
2019-05-18T09:16:24.335Z,28.01
2019-05-18T09:17:24.382Z,28.20
2019-05-18T09:18:24.342Z,28.57
2019-05-18T09:19:24.316Z,28.98
2019-05-18T09:20:24.309Z,29.27
2019-05-18T09:21:24.306Z,29.39
2019-05-18T09:22:24.306Z,29.65
2019-05-18T09:23:24.302Z,29.61
2019-05-18T09:24:24.299Z,29.46
2019-05-18T09:25:24.299Z,29.62
2019-05-18T09:26:24.290Z,29.52
2019-05-18T09:27:24.286Z,29.52
2019-05-18T09:28:24.289Z,29.34
2019-05-18T09:29:24.308Z,29.36
2019-05-18T09:30:24.276Z,29.49
2019-05-18T09:31:24.273Z,29.58
2019-05-18T09:32:24.317Z,29.34
2019-05-18T09:33:24.295Z,29.61
2019-05-18T09:34:24.261Z,29.78
2019-05-18T09:35:24.577Z,30.03
2019-05-18T09:36:24.257Z,30.40
2019-05-18T09:37:24.249Z,30.51
2019-05-18T09:38:24.245Z,30.60
2019-05-18T09:39:24.243Z,30.77
2019-05-18T09:40:24.242Z,30.58
2019-05-18T09:41:24.236Z,30.80
2019-05-18T09:42:24.230Z,30.95
2019-05-18T09:43:24.228Z,31.01
2019-05-18T09:44:24.223Z,30.97
2019-05-18T09:45:24.218Z,30.70
2019-05-18T09:46:24.218Z,30.78
2019-05-18T09:47:24.218Z,30.71
2019-05-18T09:48:24.233Z,30.97
2019-05-18T09:49:24.541Z,31.02
2019-05-18T09:51:24.196Z,31.02
2019-05-18T09:52:43.551Z,31.19
2019-05-18T09:53:24.187Z,31.26
2019-05-18T09:55:24.202Z,31.10
2019-05-18T09:56:24.719Z,31.07
2019-05-18T09:57:24.380Z,30.96
2019-05-18T09:58:24.172Z,30.95
2019-05-18T09:59:24.160Z,31.02
2019-05-18T10:00:24.154Z,31.17
2019-05-18T10:01:24.149Z,31.27
2019-05-18T10:02:24.148Z,31.37
2019-05-18T10:03:24.140Z,31.60
2019-05-18T10:04:24.142Z,31.68
2019-05-18T10:05:24.131Z,31.61
2019-05-18T10:06:24.130Z,31.48
2019-05-18T10:07:24.119Z,31.37
2019-05-18T10:08:24.111Z,31.39
2019-05-18T10:09:24.202Z,31.37
2019-05-18T10:10:24.107Z,31.12
2019-05-18T10:11:24.195Z,31.02
2019-05-18T10:12:24.812Z,30.95
2019-05-18T10:13:24.724Z,30.80
2019-05-18T10:14:24.419Z,30.60
2019-05-18T10:15:24.397Z,30.02
2019-05-18T10:16:24.785Z,30.03
2019-05-18T10:17:24.098Z,29.76
2019-05-18T10:18:25.471Z,29.70
2019-05-18T10:19:24.401Z,29.93
2019-05-18T10:20:32.411Z,29.95
2019-05-18T10:21:24.077Z,30.03
2019-05-18T10:22:24.100Z,29.91
2019-05-18T10:23:24.071Z,29.98
2019-05-18T10:24:24.266Z,30.11
2019-05-18T10:25:25.762Z,29.63
2019-05-18T10:27:24.338Z,28.03
2019-05-18T10:28:24.337Z,27.88
2019-05-18T10:29:23.988Z,27.50
2019-05-18T10:30:23.984Z,27.13
2019-05-18T10:31:24.296Z,26.76
2019-05-18T10:32:23.973Z,26.63
2019-05-18T10:33:26.115Z,26.34
2019-05-18T10:34:23.964Z,26.23
2019-05-18T10:35:23.949Z,26.31
2019-05-18T10:36:23.946Z,25.90
2019-05-18T10:37:23.929Z,25.63
2019-05-18T10:38:24.247Z,24.97
2019-05-18T10:39:23.913Z,24.65
2019-05-18T10:40:23.916Z,24.55
2019-05-18T10:41:23.899Z,24.78
2019-05-18T10:42:23.889Z,24.90
2019-05-18T10:43:23.889Z,25.12
2019-05-18T10:44:23.881Z,25.30
2019-05-18T10:45:23.866Z,25.43
2019-05-18T10:47:23.855Z,25.78
2019-05-18T10:48:23.840Z,25.28
2019-05-18T10:49:23.838Z,25.31
2019-05-18T10:50:23.830Z,25.52
2019-05-18T10:51:23.818Z,25.73
2019-05-18T10:52:23.817Z,25.77
2019-05-18T10:53:28.841Z,25.96
2019-05-18T10:54:23.801Z,26.11
2019-05-18T10:55:23.801Z,26.39
2019-05-18T10:56:23.779Z,26.71
2019-05-18T10:57:23.772Z,26.64
2019-05-18T10:58:23.769Z,26.80
2019-05-18T10:59:23.754Z,26.95
2019-05-18T11:00:23.756Z,27.15
2019-05-18T11:01:23.739Z,27.27
2019-05-18T11:02:23.735Z,27.68
2019-05-18T11:03:23.725Z,27.63
2019-05-18T11:04:23.713Z,27.66
2019-05-18T11:05:23.708Z,27.57
2019-05-18T11:06:23.706Z,27.60
2019-05-18T11:07:23.696Z,27.64
2019-05-18T11:08:23.687Z,27.26
2019-05-18T11:09:23.676Z,27.17
2019-05-18T11:10:23.670Z,27.23
2019-05-18T11:11:23.666Z,27.44
2019-05-18T11:12:23.660Z,27.61
2019-05-18T11:13:23.644Z,27.85
2019-05-18T11:14:23.639Z,27.60
2019-05-18T11:15:23.647Z,27.34
2019-05-18T11:16:23.626Z,27.20
2019-05-18T11:17:23.628Z,27.50
2019-05-18T11:18:23.612Z,27.70
2019-05-18T11:19:23.603Z,28.12
2019-05-18T11:20:23.598Z,28.32
2019-05-18T11:21:23.652Z,28.47
2019-05-18T11:22:23.643Z,28.54
2019-05-18T11:23:23.594Z,28.52
2019-05-18T11:24:23.571Z,28.57
2019-05-18T11:25:23.558Z,28.46
2019-05-18T11:26:23.556Z,28.44
2019-05-18T11:27:23.556Z,28.50
2019-05-18T11:28:23.540Z,28.53
2019-05-18T11:29:24.266Z,28.61
2019-05-18T11:30:23.523Z,28.47
2019-05-18T11:31:23.517Z,28.20
2019-05-18T11:32:23.514Z,27.93
2019-05-18T11:33:23.525Z,27.37
2019-05-18T11:34:23.496Z,27.47
2019-05-18T11:35:23.491Z,27.57
2019-05-18T11:36:23.501Z,27.75
2019-05-18T11:37:23.495Z,27.88
2019-05-18T11:38:23.497Z,27.85
2019-05-18T11:39:23.466Z,27.34
2019-05-18T11:40:23.463Z,27.38
2019-05-18T11:41:23.451Z,27.35
2019-05-18T11:42:23.444Z,27.37
2019-05-18T11:43:23.434Z,27.64
2019-05-18T11:44:23.424Z,27.69
2019-05-18T11:45:23.420Z,27.45
2019-05-18T11:46:23.413Z,27.35
2019-05-18T11:47:23.410Z,27.49
2019-05-18T11:48:23.396Z,27.54
2019-05-18T11:49:23.398Z,27.47
2019-05-18T11:50:23.382Z,27.54
2019-05-18T11:51:23.387Z,26.95
2019-05-18T11:52:23.370Z,26.88
2019-05-18T11:53:23.369Z,27.01
2019-05-18T11:54:23.353Z,27.15
2019-05-18T11:55:23.348Z,27.32
2019-05-18T11:56:23.337Z,27.41
2019-05-18T11:57:23.339Z,27.63
2019-05-18T11:58:23.342Z,27.80
2019-05-18T11:59:23.320Z,27.94
2019-05-18T12:00:23.317Z,28.06
2019-05-18T12:01:23.303Z,28.24
2019-05-18T12:02:23.296Z,28.27
2019-05-18T12:03:23.289Z,28.09
2019-05-18T12:04:23.289Z,28.16
2019-05-18T12:05:23.274Z,28.30
2019-05-18T12:06:23.271Z,27.80
2019-05-18T12:07:23.272Z,27.80
2019-05-18T12:08:23.255Z,27.95
2019-05-18T12:09:23.275Z,27.70
2019-05-18T12:10:23.240Z,27.50
2019-05-18T12:11:23.241Z,27.47
2019-05-18T12:12:23.223Z,27.32
2019-05-18T12:13:23.226Z,27.27
2019-05-18T12:14:23.217Z,27.10
2019-05-18T12:15:23.221Z,27.31
2019-05-18T12:16:23.197Z,27.27
2019-05-18T12:17:23.193Z,27.38
2019-05-18T12:18:23.181Z,27.61
2019-05-18T12:19:23.187Z,27.52
2019-05-18T12:20:23.168Z,27.44
2019-05-18T12:21:23.159Z,26.90
2019-05-18T12:22:23.158Z,26.64
2019-05-18T12:23:23.151Z,26.30
2019-05-18T12:24:23.136Z,26.20
2019-05-18T12:25:23.141Z,26.19
2019-05-18T12:26:23.128Z,26.07
2019-05-18T12:27:23.120Z,26.38
2019-05-18T12:28:23.106Z,26.65
2019-05-18T12:29:23.101Z,26.90
2019-05-18T12:30:23.096Z,27.12
2019-05-18T12:31:23.094Z,27.38
2019-05-18T12:32:23.081Z,27.61
2019-05-18T12:33:23.078Z,27.87
2019-05-18T12:34:23.064Z,27.79
2019-05-18T12:35:23.054Z,27.98
2019-05-18T12:36:23.048Z,28.10
2019-05-18T12:37:23.045Z,28.20
2019-05-18T12:38:23.030Z,28.31
2019-05-18T12:39:23.024Z,28.25
2019-05-18T12:40:23.024Z,28.25
2019-05-18T12:41:23.010Z,28.35
2019-05-18T12:42:23.008Z,28.22
2019-05-18T12:43:22.996Z,27.53
2019-05-18T12:44:23.011Z,27.10
2019-05-18T12:45:22.989Z,26.71
2019-05-18T12:46:22.982Z,26.68
2019-05-18T12:47:22.969Z,26.79
2019-05-18T12:48:22.962Z,27.16
2019-05-18T12:49:22.951Z,27.42
2019-05-18T12:50:22.945Z,27.69
2019-05-18T12:51:22.938Z,28.00
2019-05-18T12:52:22.932Z,28.30
2019-05-18T12:53:22.925Z,28.56
2019-05-18T12:54:31.010Z,28.69
2019-05-18T12:55:22.919Z,28.89
2019-05-18T12:56:22.968Z,28.68